PWSweather.com
Personal Weather Stations
Station Observations
WHAKATANE1
Whakatane, WhakataneNZ

WhakataneWhakataneNZ

Lat: -37.960954, Lon: 176.9768

Elevation: 10

Station Type: Lacrosse

Latest ConditionsUpdated 8:40:00 PM GMT+12:12 Saturday, May 23, 2015
Currently Today's Max Today's Min Today's Average
Temperature 51.6°F10.9°C 57.7°F14.3°C 45.7°F7.6°C 52.2°F11.2°C
Dew Point 51.4°F10.8°C 57.5°F14.2°C 45.4°F7.4°C 51.9°F11.1°C
Winds 10.0 mph WNW16.1 kmh WNW 15.3 mph SW24.6 kmh SW - 6.5 mph 10.5 kmh
Wind Gusts 13.6 mph21.9 kmh 20.6 mph33.2 kmh - -
Humidity 99% 99% 10% 99%
Pressure 29.23 in989.8 mb 30.04 in1017.3 mb 29.23 in989.8 mb -
Precipitation - 2.02 in51.3 mm - -
Hour Temp Dew Point Humidity Winds Wind Gusts Pressure Precip Precip Rate Daily Precip Total
08:40 PM 51.6°F10.9°C 51.4°F10.8°C 99% 10.0 mph WNW16.1 kmh WNW 13.6 mph21.9 kmh 29.23 in989.8 mb 0.12 in3.0 mm 0.00 in0.0 mm 2.02 in51.3 mm
08:35 PM 51.6°F10.9°C 51.4°F10.8°C 99% 11.0 mph WNW17.7 kmh WNW 13.6 mph21.9 kmh 29.23 in989.8 mb 0.12 in3.0 mm 0.00 in0.0 mm 2.02 in51.3 mm
08:30 PM 51.8°F11.0°C 51.5°F10.8°C 99% 10.1 mph NW16.3 kmh NW 13.6 mph21.9 kmh 29.23 in989.8 mb 0.12 in3.0 mm 0.00 in0.0 mm 2.01 in51.1 mm
08:25 PM 51.8°F11.0°C 51.5°F10.8°C 99% 7.7 mph NW12.4 kmh NW 11.4 mph18.3 kmh 29.24 in990.2 mb 0.12 in3.0 mm 0.12 in3.0 mm 2.01 in51.1 mm
08:20 PM 51.8°F11.0°C 51.5°F10.8°C 99% 7.3 mph NW11.7 kmh NW 11.4 mph18.3 kmh 29.25 in990.5 mb 0.11 in2.8 mm 0.24 in6.1 mm 1.98 in50.3 mm
08:15 PM 51.8°F11.0°C 51.5°F10.8°C 99% 8.7 mph WNW14.0 kmh WNW 13.6 mph21.9 kmh 29.25 in990.5 mb 0.09 in2.3 mm 0.00 in0.0 mm 1.97 in50.0 mm
08:10 PM 51.8°F11.0°C 51.5°F10.8°C 99% 9.2 mph NW14.8 kmh NW 13.6 mph21.9 kmh 29.25 in990.5 mb 0.09 in2.3 mm 0.12 in3.0 mm 1.97 in50.0 mm
08:05 PM 51.8°F11.0°C 51.5°F10.8°C 99% 8.8 mph NW14.2 kmh NW 15.2 mph24.5 kmh 29.25 in990.5 mb 0.08 in2.0 mm 0.12 in3.0 mm 1.96 in49.8 mm
08:00 PM 51.8°F11.0°C 51.5°F10.8°C 99% 8.6 mph WNW13.8 kmh WNW 15.2 mph24.5 kmh 29.25 in990.5 mb 0.07 in1.8 mm 0.01 in0.3 mm 1.95 in49.5 mm
07:55 PM 52.0°F11.1°C 51.7°F10.9°C 99% 8.4 mph WNW13.5 kmh WNW 10.7 mph17.2 kmh 29.25 in990.5 mb 0.06 in1.5 mm 0.12 in3.0 mm 1.94 in49.3 mm
07:50 PM 52.0°F11.1°C 51.7°F10.9°C 99% 8.1 mph NW13.0 kmh NW 9.8 mph15.8 kmh 29.25 in990.5 mb 0.05 in1.3 mm 0.12 in3.0 mm 1.93 in49.0 mm
07:45 PM 52.0°F11.1°C 51.7°F10.9°C 99% 7.6 mph WNW12.2 kmh WNW 9.8 mph15.8 kmh 29.26 in990.9 mb 0.04 in1.0 mm 0.00 in0.0 mm 1.91 in48.5 mm
07:40 PM 52.0°F11.1°C 51.7°F10.9°C 99% 7.8 mph W12.6 kmh W 10.7 mph17.2 kmh 29.26 in990.9 mb 0.04 in1.0 mm 0.00 in0.0 mm 1.90 in48.3 mm
07:35 PM 52.0°F11.1°C 51.7°F10.9°C 99% 7.8 mph WNW12.6 kmh WNW 10.7 mph17.2 kmh 29.27 in991.2 mb 0.04 in1.0 mm 0.24 in6.1 mm 1.90 in48.3 mm
07:30 PM 52.0°F11.1°C 51.7°F10.9°C 99% 7.4 mph NW11.9 kmh NW 9.8 mph15.8 kmh 29.27 in991.2 mb 0.02 in0.5 mm 0.00 in0.0 mm 1.89 in48.0 mm
07:25 PM 52.0°F11.1°C 51.7°F10.9°C 99% 6.6 mph NW10.6 kmh NW 9.8 mph15.8 kmh 29.26 in990.9 mb 0.02 in0.5 mm 0.00 in0.0 mm 1.89 in48.0 mm
07:20 PM 52.0°F11.1°C 51.7°F10.9°C 99% 6.1 mph NW9.8 kmh NW 7.6 mph12.2 kmh 29.27 in991.2 mb 0.02 in0.5 mm 0.00 in0.0 mm 1.88 in47.8 mm
07:15 PM 52.0°F11.1°C 51.7°F10.9°C 99% 5.9 mph NW9.5 kmh NW 7.6 mph12.2 kmh 29.27 in991.2 mb 0.02 in0.5 mm 0.00 in0.0 mm 1.88 in47.8 mm
07:10 PM 52.0°F11.1°C 51.7°F10.9°C 99% 5.6 mph NW9.0 kmh NW 7.6 mph12.2 kmh 29.27 in991.2 mb 0.04 in1.0 mm 0.00 in0.0 mm 1.88 in47.8 mm
07:05 PM 52.0°F11.1°C 51.7°F10.9°C 99% 5.6 mph NW9.0 kmh NW 8.3 mph13.4 kmh 29.28 in991.5 mb 0.04 in1.0 mm 0.00 in0.0 mm 1.88 in47.8 mm
07:00 PM 52.2°F11.2°C 51.9°F11.1°C 99% 5.9 mph WNW9.5 kmh WNW 8.3 mph13.4 kmh 29.28 in991.5 mb 0.04 in1.0 mm 0.00 in0.0 mm 1.88 in47.8 mm
06:55 PM 52.2°F11.2°C 51.9°F11.1°C 99% 6.7 mph WNW10.8 kmh WNW 9.2 mph14.8 kmh 29.29 in991.9 mb 0.04 in1.0 mm 0.00 in0.0 mm 1.88 in47.8 mm
06:50 PM 52.2°F11.2°C 51.9°F11.1°C 99% 7.5 mph W12.1 kmh W 10.7 mph17.2 kmh 29.29 in991.9 mb 0.04 in1.0 mm 0.00 in0.0 mm 1.88 in47.8 mm
06:45 PM 52.2°F11.2°C 51.9°F11.1°C 99% 7.7 mph W12.4 kmh W 10.7 mph17.2 kmh 29.29 in991.9 mb 0.04 in1.0 mm 0.24 in6.1 mm 1.88 in47.8 mm
06:40 PM 52.2°F11.2°C 51.9°F11.1°C 99% 8.2 mph W13.2 kmh W 10.7 mph17.2 kmh 29.29 in991.9 mb 0.02 in0.5 mm 0.00 in0.0 mm 1.87 in47.5 mm
06:35 PM 52.3°F11.3°C 52.1°F11.2°C 99% 8.7 mph WNW14.0 kmh WNW 11.4 mph18.3 kmh 29.30 in992.2 mb 0.04 in1.0 mm 0.00 in0.0 mm 1.87 in47.5 mm
06:30 PM 52.3°F11.3°C 52.1°F11.2°C 99% 7.6 mph WNW12.2 kmh WNW 11.4 mph18.3 kmh 29.29 in991.9 mb 0.04 in1.0 mm 0.00 in0.0 mm 1.87 in47.5 mm
06:25 PM 52.3°F11.3°C 52.1°F11.2°C 99% 6.8 mph WNW10.9 kmh WNW 9.8 mph15.8 kmh 29.30 in992.2 mb 0.04 in1.0 mm 0.00 in0.0 mm 1.87 in47.5 mm
06:20 PM 52.3°F11.3°C 52.1°F11.2°C 99% 6.6 mph WNW10.6 kmh WNW 9.8 mph15.8 kmh 29.30 in992.2 mb 0.05 in1.3 mm 0.00 in0.0 mm 1.85 in47.0 mm
06:15 PM 52.5°F11.4°C 52.3°F11.3°C 99% 5.0 mph NW8.0 kmh NW 7.6 mph12.2 kmh 29.32 in992.9 mb 0.06 in1.5 mm 0.00 in0.0 mm 1.85 in47.0 mm
06:10 PM 52.5°F11.4°C 52.3°F11.3°C 99% 3.8 mph NW6.1 kmh NW 5.4 mph8.7 kmh 29.33 in993.2 mb 0.07 in1.8 mm 0.00 in0.0 mm 1.84 in46.7 mm
06:05 PM 52.5°F11.4°C 52.3°F11.3°C 99% 5.1 mph W8.2 kmh W 7.6 mph12.2 kmh 29.32 in992.9 mb 0.07 in1.8 mm 0.00 in0.0 mm 1.84 in46.7 mm
06:00 PM 52.2°F11.2°C 51.9°F11.1°C 99% 7.8 mph WNW12.6 kmh WNW 10.7 mph17.2 kmh 29.31 in992.6 mb 0.08 in2.0 mm 0.00 in0.0 mm 1.84 in46.7 mm
05:55 PM 52.2°F11.2°C 51.9°F11.1°C 99% 9.1 mph NW14.6 kmh NW 10.7 mph17.2 kmh 29.32 in992.9 mb 0.09 in2.3 mm 0.00 in0.0 mm 1.84 in46.7 mm
05:50 PM 52.2°F11.2°C 51.9°F11.1°C 99% 8.9 mph NW14.3 kmh NW 11.4 mph18.3 kmh 29.34 in993.6 mb 0.12 in3.0 mm 0.00 in0.0 mm 1.84 in46.7 mm
05:45 PM 52.3°F11.3°C 52.1°F11.2°C 99% 7.9 mph NW12.7 kmh NW 11.4 mph18.3 kmh 29.35 in993.9 mb 0.13 in3.3 mm 0.00 in0.0 mm 1.84 in46.7 mm
05:40 PM 52.3°F11.3°C 52.1°F11.2°C 99% 6.5 mph NW10.5 kmh NW 9.2 mph14.8 kmh 29.35 in993.9 mb 0.14 in3.6 mm 0.12 in3.0 mm 1.84 in46.7 mm
05:35 PM 52.3°F11.3°C 52.1°F11.2°C 99% 6.6 mph NW10.6 kmh NW 9.2 mph14.8 kmh 29.36 in994.2 mb 0.13 in3.3 mm 0.00 in0.0 mm 1.83 in46.5 mm
05:30 PM 52.3°F11.3°C 52.1°F11.2°C 99% 6.7 mph NW10.8 kmh NW 9.2 mph14.8 kmh 29.36 in994.2 mb 0.14 in3.6 mm 0.12 in3.0 mm 1.83 in46.5 mm
05:25 PM 52.3°F11.3°C 52.1°F11.2°C 99% 5.7 mph NW9.2 kmh NW 8.3 mph13.4 kmh 29.37 in994.6 mb 0.13 in3.3 mm 0.00 in0.0 mm 1.82 in46.2 mm
05:20 PM 52.3°F11.3°C 52.1°F11.2°C 99% 5.3 mph NW8.5 kmh NW 8.3 mph13.4 kmh 29.37 in994.6 mb 0.13 in3.3 mm 0.00 in0.0 mm 1.81 in46.0 mm
05:15 PM 52.3°F11.3°C 52.1°F11.2°C 99% 5.6 mph NW9.0 kmh NW 8.3 mph13.4 kmh 29.37 in994.6 mb 0.14 in3.6 mm 0.12 in3.0 mm 1.80 in45.7 mm
05:10 PM 52.3°F11.3°C 52.1°F11.2°C 99% 6.2 mph NW10.0 kmh NW 8.3 mph13.4 kmh 29.37 in994.6 mb 0.13 in3.3 mm 0.00 in0.0 mm 1.77 in45.0 mm
05:05 PM 52.3°F11.3°C 52.1°F11.2°C 99% 7.6 mph NW12.2 kmh NW 10.7 mph17.2 kmh 29.38 in994.9 mb 0.14 in3.6 mm 0.00 in0.0 mm 1.77 in45.0 mm
05:00 PM 52.5°F11.4°C 52.3°F11.3°C 99% 7.6 mph NW12.2 kmh NW 10.7 mph17.2 kmh 29.38 in994.9 mb 0.15 in3.8 mm 0.00 in0.0 mm 1.76 in44.7 mm
04:55 PM 52.5°F11.4°C 52.3°F11.3°C 99% 5.8 mph NNW9.3 kmh NNW 7.6 mph12.2 kmh 29.39 in995.3 mb 0.15 in3.8 mm 0.12 in3.0 mm 1.75 in44.5 mm
04:50 PM 52.5°F11.4°C 52.3°F11.3°C 99% 5.8 mph NW9.3 kmh NW 7.6 mph12.2 kmh 29.39 in995.3 mb 0.14 in3.6 mm 0.00 in0.0 mm 1.72 in43.7 mm
04:45 PM 52.5°F11.4°C 52.3°F11.3°C 99% 6.8 mph WNW10.9 kmh WNW 9.2 mph14.8 kmh 29.39 in995.3 mb 0.15 in3.8 mm 0.00 in0.0 mm 1.71 in43.4 mm
04:40 PM 52.7°F11.5°C 52.4°F11.3°C 99% 7.1 mph WNW11.4 kmh WNW 9.2 mph14.8 kmh 29.39 in995.3 mb 0.15 in3.8 mm 0.00 in0.0 mm 1.70 in43.2 mm
04:35 PM 52.9°F11.6°C 52.6°F11.4°C 99% 7.6 mph WNW12.2 kmh WNW 12.1 mph19.5 kmh 29.40 in995.6 mb 0.15 in3.8 mm 0.12 in3.0 mm 1.70 in43.2 mm
04:30 PM 52.9°F11.6°C 52.6°F11.4°C 99% 8.3 mph WNW13.4 kmh WNW 12.1 mph19.5 kmh 29.40 in995.6 mb 0.14 in3.6 mm 0.00 in0.0 mm 1.69 in42.9 mm
04:25 PM 53.1°F11.7°C 52.8°F11.6°C 99% 7.9 mph WNW12.7 kmh WNW 10.7 mph17.2 kmh 29.40 in995.6 mb 0.14 in3.6 mm 0.12 in3.0 mm 1.68 in42.7 mm
04:20 PM 53.2°F11.8°C 53.0°F11.7°C 99% 7.1 mph WNW11.4 kmh WNW 10.7 mph17.2 kmh 29.41 in995.9 mb 0.13 in3.3 mm 0.00 in0.0 mm 1.67 in42.4 mm
04:15 PM 53.4°F11.9°C 53.2°F11.8°C 99% 5.8 mph W9.3 kmh W 8.3 mph13.4 kmh 29.41 in995.9 mb 0.14 in3.6 mm 0.00 in0.0 mm 1.65 in41.9 mm
04:10 PM 53.6°F12.0°C 53.3°F11.8°C 99% 5.3 mph WNW8.5 kmh WNW 6.9 mph11.1 kmh 29.41 in995.9 mb 0.14 in3.6 mm 0.00 in0.0 mm 1.64 in41.7 mm
04:05 PM 53.8°F12.1°C 53.5°F11.9°C 99% 5.4 mph WNW8.7 kmh WNW 6.9 mph11.1 kmh 29.43 in996.6 mb 0.17 in4.3 mm 0.00 in0.0 mm 1.63 in41.4 mm
04:00 PM 54.0°F12.2°C 53.7°F12.1°C 99% 4.8 mph NW7.7 kmh NW 6.9 mph11.1 kmh 29.43 in996.6 mb 0.17 in4.3 mm 0.00 in0.0 mm 1.61 in40.9 mm
03:55 PM 54.1°F12.3°C 53.9°F12.2°C 99% 3.9 mph NW6.3 kmh NW 6.9 mph11.1 kmh 29.43 in996.6 mb 0.17 in4.3 mm 0.24 in6.1 mm 1.59 in40.4 mm
03:50 PM 54.3°F12.4°C 54.1°F12.3°C 99% 4.1 mph NW6.6 kmh NW 6.0 mph9.7 kmh 29.44 in997.0 mb 0.15 in3.8 mm 0.12 in3.0 mm 1.58 in40.1 mm
03:45 PM 54.7°F12.6°C 54.4°F12.4°C 99% 4.6 mph NW7.4 kmh NW 6.9 mph11.1 kmh 29.44 in997.0 mb 0.14 in3.6 mm 0.12 in3.0 mm 1.56 in39.6 mm
03:40 PM 55.2°F12.9°C 55.0°F12.8°C 99% 3.1 mph NNW5.0 kmh NNW 6.9 mph11.1 kmh 29.45 in997.3 mb 0.13 in3.3 mm 0.00 in0.0 mm 1.55 in39.4 mm
03:35 PM 55.6°F13.1°C 55.3°F12.9°C 99% 2.6 mph NW4.2 kmh NW 4.5 mph7.2 kmh 29.45 in997.3 mb 0.15 in3.8 mm 0.00 in0.0 mm 1.55 in39.4 mm
03:30 PM 55.8°F13.2°C 55.5°F13.1°C 99% 3.6 mph NW5.8 kmh NW 6.0 mph9.7 kmh 29.45 in997.3 mb 0.17 in4.3 mm 0.00 in0.0 mm 1.55 in39.4 mm
03:25 PM 56.3°F13.5°C 56.0°F13.3°C 99% 3.1 mph N5.0 kmh N 6.0 mph9.7 kmh 29.45 in997.3 mb 0.18 in4.6 mm 0.00 in0.0 mm 1.54 in39.1 mm
03:20 PM 56.7°F13.7°C 56.4°F13.6°C 99% 2.2 mph N3.5 kmh N 3.8 mph6.1 kmh 29.46 in997.6 mb 0.19 in4.8 mm 0.00 in0.0 mm 1.54 in39.1 mm
03:15 PM 57.0°F13.9°C 56.8°F13.8°C 99% 2.6 mph NNE4.2 kmh NNE 4.5 mph7.2 kmh 29.46 in997.6 mb 0.21 in5.3 mm 0.00 in0.0 mm 1.51 in38.4 mm
03:10 PM 57.4°F14.1°C 57.1°F13.9°C 99% 4.1 mph E6.6 kmh E 7.6 mph12.2 kmh 29.46 in997.6 mb 0.24 in6.1 mm 0.00 in0.0 mm 1.50 in38.1 mm
03:05 PM 57.7°F14.3°C 57.5°F14.2°C 99% 6.8 mph SE10.9 kmh SE 12.1 mph19.5 kmh 29.46 in997.6 mb 0.24 in6.1 mm 0.00 in0.0 mm 1.46 in37.1 mm
03:00 PM 57.7°F14.3°C 57.5°F14.2°C 99% 9.0 mph S14.5 kmh S 14.5 mph23.3 kmh 29.46 in997.6 mb 0.26 in6.6 mm 0.00 in0.0 mm 1.43 in36.3 mm
02:55 PM 57.2°F14.0°C 56.9°F13.8°C 99% 9.7 mph S15.6 kmh S 14.5 mph23.3 kmh 29.46 in997.6 mb 0.28 in7.1 mm 0.00 in0.0 mm 1.43 in36.3 mm
02:50 PM 56.8°F13.8°C 56.6°F13.7°C 99% 8.3 mph S13.4 kmh S 13.6 mph21.9 kmh 29.46 in997.6 mb 0.31 in7.9 mm 0.00 in0.0 mm 1.43 in36.3 mm
02:45 PM 56.3°F13.5°C 56.0°F13.3°C 99% 5.9 mph S9.5 kmh S 11.4 mph18.3 kmh 29.47 in998.0 mb 0.31 in7.9 mm 0.00 in0.0 mm 1.42 in36.1 mm
02:40 PM 55.9°F13.3°C 55.7°F13.2°C 99% 4.7 mph SE7.6 kmh SE 10.7 mph17.2 kmh 29.48 in998.3 mb 0.32 in8.1 mm 0.12 in3.0 mm 1.42 in36.1 mm
02:35 PM 55.6°F13.1°C 55.3°F12.9°C 99% 4.3 mph SSE6.9 kmh SSE 6.9 mph11.1 kmh 29.48 in998.3 mb 0.31 in7.9 mm 0.00 in0.0 mm 1.39 in35.3 mm
02:30 PM 55.9°F13.3°C 55.7°F13.2°C 99% 5.1 mph WSW8.2 kmh WSW 7.6 mph12.2 kmh 29.49 in998.6 mb 0.31 in7.9 mm 0.12 in3.0 mm 1.38 in35.1 mm
02:25 PM 55.4°F13.0°C 55.1°F12.8°C 99% 6.3 mph WSW10.1 kmh WSW 9.2 mph14.8 kmh 29.49 in998.6 mb 0.30 in7.6 mm 0.48 in12.2 mm 1.36 in34.5 mm
02:20 PM 55.4°F13.0°C 55.1°F12.8°C 99% 7.2 mph SW11.6 kmh SW 9.2 mph14.8 kmh 29.50 in999.0 mb 0.26 in6.6 mm 0.00 in0.0 mm 1.32 in33.5 mm
02:15 PM 55.6°F13.1°C 55.3°F12.9°C 99% 6.7 mph SW10.8 kmh SW 8.3 mph13.4 kmh 29.50 in999.0 mb 0.26 in6.6 mm 0.48 in12.2 mm 1.30 in33.0 mm
02:10 PM 55.6°F13.1°C 55.3°F12.9°C 99% 6.1 mph SW9.8 kmh SW 7.6 mph12.2 kmh 29.51 in999.3 mb 0.22 in5.6 mm 0.36 in9.1 mm 1.26 in32.0 mm
02:05 PM 55.6°F13.1°C 55.3°F12.9°C 99% 6.3 mph SW10.1 kmh SW 9.2 mph14.8 kmh 29.51 in999.3 mb 0.19 in4.8 mm 0.72 in18.3 mm 1.22 in31.0 mm
02:00 PM 55.6°F13.1°C 55.3°F12.9°C 99% 7.0 mph SW11.3 kmh SW 9.8 mph15.8 kmh 29.52 in999.7 mb 0.13 in3.3 mm 0.00 in0.0 mm 1.16 in29.5 mm
01:55 PM 55.8°F13.2°C 55.5°F13.1°C 99% 7.5 mph SW12.1 kmh SW 11.4 mph18.3 kmh 29.53 in1000.0 mb 0.13 in3.3 mm 0.12 in3.0 mm 1.15 in29.2 mm
01:50 PM 55.8°F13.2°C 55.5°F13.1°C 99% 7.6 mph SW12.2 kmh SW 11.4 mph18.3 kmh 29.53 in1000.0 mb 0.12 in3.0 mm 0.12 in3.0 mm 1.12 in28.4 mm
01:45 PM 55.9°F13.3°C 55.7°F13.2°C 99% 7.3 mph SW11.7 kmh SW 11.4 mph18.3 kmh 29.54 in1000.3 mb 0.11 in2.8 mm 0.00 in0.0 mm 1.11 in28.2 mm
01:40 PM 56.1°F13.4°C 55.9°F13.3°C 99% 8.2 mph SW13.2 kmh SW 10.7 mph17.2 kmh 29.55 in1000.7 mb 0.11 in2.8 mm 0.24 in6.1 mm 1.10 in27.9 mm
01:35 PM 56.3°F13.5°C 56.0°F13.3°C 99% 8.4 mph SW13.5 kmh SW 10.7 mph17.2 kmh 29.55 in1000.7 mb 0.09 in2.3 mm 0.00 in0.0 mm 1.09 in27.7 mm
01:30 PM 56.7°F13.7°C 56.4°F13.6°C 99% 7.1 mph SW11.4 kmh SW 10.7 mph17.2 kmh 29.55 in1000.7 mb 0.09 in2.3 mm 0.12 in3.0 mm 1.07 in27.2 mm
01:25 PM 57.2°F14.0°C 56.9°F13.8°C 99% 7.2 mph SW11.6 kmh SW 10.7 mph17.2 kmh 29.56 in1001.0 mb 0.08 in2.0 mm 0.00 in0.0 mm 1.06 in26.9 mm
01:20 PM 57.6°F14.2°C 57.3°F14.1°C 99% 8.0 mph SSW12.9 kmh SSW 10.7 mph17.2 kmh 29.55 in1000.7 mb 0.08 in2.0 mm 0.12 in3.0 mm 1.05 in26.7 mm
01:15 PM 57.6°F14.2°C 57.3°F14.1°C 99% 7.2 mph S11.6 kmh S 10.7 mph17.2 kmh 29.56 in1001.0 mb 0.07 in1.8 mm 0.00 in0.0 mm 1.04 in26.4 mm
01:10 PM 57.6°F14.2°C 57.3°F14.1°C 99% 7.7 mph S12.4 kmh S 13.6 mph21.9 kmh 29.57 in1001.4 mb 0.08 in2.0 mm 0.12 in3.0 mm 1.04 in26.4 mm
01:05 PM 57.4°F14.1°C 57.1°F13.9°C 99% 9.8 mph SSW15.8 kmh SSW 15.9 mph25.6 kmh 29.57 in1001.4 mb 0.07 in1.8 mm 0.00 in0.0 mm 1.03 in26.2 mm
01:00 PM 57.4°F14.1°C 57.1°F13.9°C 99% 9.8 mph SSW15.8 kmh SSW 15.9 mph25.6 kmh 29.57 in1001.4 mb 0.07 in1.8 mm 0.00 in0.0 mm 1.03 in26.2 mm
12:55 PM 57.2°F14.0°C 56.9°F13.8°C 99% 8.6 mph SW13.8 kmh SW 12.1 mph19.5 kmh 29.58 in1001.7 mb 0.07 in1.8 mm 0.00 in0.0 mm 1.02 in25.9 mm
12:50 PM 57.0°F13.9°C 56.8°F13.8°C 99% 10.0 mph SW16.1 kmh SW 13.0 mph20.9 kmh 29.59 in1002.0 mb 0.07 in1.8 mm 0.00 in0.0 mm 1.00 in25.4 mm
12:45 PM 56.8°F13.8°C 56.6°F13.7°C 99% 11.7 mph SSW18.8 kmh SSW 15.9 mph25.6 kmh 29.59 in1002.0 mb 0.08 in2.0 mm 0.00 in0.0 mm 1.00 in25.4 mm
12:40 PM 56.8°F13.8°C 56.6°F13.7°C 99% 12.2 mph S19.6 kmh S 15.9 mph25.6 kmh 29.60 in1002.4 mb 0.08 in2.0 mm 0.00 in0.0 mm 0.99 in25.1 mm
12:35 PM 56.7°F13.7°C 56.4°F13.6°C 99% 11.7 mph S18.8 kmh S 15.9 mph25.6 kmh 29.61 in1002.7 mb 0.11 in2.8 mm 0.00 in0.0 mm 0.99 in25.1 mm
12:30 PM 56.5°F13.6°C 56.2°F13.4°C 99% 12.1 mph S19.5 kmh S 15.2 mph24.5 kmh 29.61 in1002.7 mb 0.11 in2.8 mm 0.00 in0.0 mm 0.98 in24.9 mm
12:25 PM 56.5°F13.6°C 56.2°F13.4°C 99% 12.9 mph S20.8 kmh S 19.7 mph31.7 kmh 29.62 in1003.0 mb 0.12 in3.0 mm 0.00 in0.0 mm 0.98 in24.9 mm
12:20 PM 56.1°F13.4°C 55.9°F13.3°C 99% 15.0 mph SSW24.1 kmh SSW 19.7 mph31.7 kmh 29.62 in1003.0 mb 0.12 in3.0 mm 0.00 in0.0 mm 0.97 in24.6 mm
12:15 PM 56.5°F13.6°C 56.2°F13.4°C 99% 15.3 mph SW24.6 kmh SW 19.7 mph31.7 kmh 29.63 in1003.4 mb 0.14 in3.6 mm 0.00 in0.0 mm 0.97 in24.6 mm
12:10 PM 55.9°F13.3°C 55.7°F13.2°C 99% 13.9 mph SSW22.4 kmh SSW 18.3 mph29.5 kmh 29.63 in1003.4 mb 0.14 in3.6 mm 0.00 in0.0 mm 0.96 in24.4 mm
12:05 PM 55.9°F13.3°C 55.7°F13.2°C 99% 13.5 mph SSW21.7 kmh SSW 18.3 mph29.5 kmh 29.64 in1003.7 mb 0.17 in4.3 mm 0.00 in0.0 mm 0.96 in24.4 mm
12:00 PM 56.1°F13.4°C 55.9°F13.3°C 99% 13.6 mph SW21.9 kmh SW 20.6 mph33.2 kmh 29.65 in1004.1 mb 0.18 in4.6 mm 0.00 in0.0 mm 0.94 in23.9 mm
11:55 AM 55.9°F13.3°C 55.7°F13.2°C 99% 12.0 mph SSW19.3 kmh SSW 20.6 mph33.2 kmh 29.65 in1004.1 mb 0.20 in5.1 mm 0.12 in3.0 mm 0.94 in23.9 mm
11:50 AM 55.9°F13.3°C 55.7°F13.2°C 99% 9.7 mph SSW15.6 kmh SSW 13.6 mph21.9 kmh 29.65 in1004.1 mb 0.19 in4.8 mm 0.00 in0.0 mm 0.93 in23.6 mm
11:45 AM 55.9°F13.3°C 55.7°F13.2°C 99% 11.9 mph SW19.2 kmh SW 15.9 mph25.6 kmh 29.66 in1004.4 mb 0.19 in4.8 mm 0.24 in6.1 mm 0.92 in23.4 mm
11:40 AM 55.9°F13.3°C 55.7°F13.2°C 99% 11.8 mph SW19.0 kmh SW 15.9 mph25.6 kmh 29.67 in1004.7 mb 0.17 in4.3 mm 0.00 in0.0 mm 0.90 in22.9 mm
11:35 AM 55.8°F13.2°C 55.5°F13.1°C 99% 9.6 mph SSW15.4 kmh SSW 13.6 mph21.9 kmh 29.68 in1005.1 mb 0.17 in4.3 mm 0.00 in0.0 mm 0.89 in22.6 mm
11:30 AM 55.4°F13.0°C 55.1°F12.8°C 99% 9.4 mph SSW15.1 kmh SSW 15.2 mph24.5 kmh 29.68 in1005.1 mb 0.17 in4.3 mm 0.00 in0.0 mm 0.87 in22.1 mm
11:25 AM 55.0°F12.8°C 54.8°F12.7°C 99% 8.2 mph SW13.2 kmh SW 15.2 mph24.5 kmh 29.69 in1005.4 mb 0.19 in4.8 mm 0.12 in3.0 mm 0.86 in21.8 mm
11:20 AM 54.5°F12.5°C 54.2°F12.3°C 99% 7.3 mph WSW11.7 kmh WSW 13.6 mph21.9 kmh 29.69 in1005.4 mb 0.18 in4.6 mm 0.36 in9.1 mm 0.85 in21.6 mm
11:15 AM 54.1°F12.3°C 53.9°F12.2°C 99% 7.1 mph SSW11.4 kmh SSW 9.2 mph14.8 kmh 29.70 in1005.8 mb 0.15 in3.8 mm 0.00 in0.0 mm 0.83 in21.1 mm
11:09 AM 53.8°F12.1°C 53.5°F11.9°C 99% 6.3 mph SW10.1 kmh SW 9.2 mph14.8 kmh 29.71 in1006.1 mb 0.15 in3.8 mm 0.15 in3.8 mm 0.81 in20.6 mm
11:05 AM 53.6°F12.0°C 53.3°F11.8°C 99% 6.0 mph SW9.7 kmh SW 8.3 mph13.4 kmh 29.71 in1006.1 mb 0.14 in3.6 mm 0.24 in6.1 mm 0.79 in20.1 mm
11:00 AM 53.6°F12.0°C 53.3°F11.8°C 99% 6.6 mph SW10.6 kmh SW 11.4 mph18.3 kmh 29.72 in1006.4 mb 0.12 in3.0 mm 0.01 in0.3 mm 0.77 in19.6 mm
10:55 AM 53.6°F12.0°C 53.3°F11.8°C 99% 6.8 mph SW10.9 kmh SW 11.4 mph18.3 kmh 29.72 in1006.4 mb 0.11 in2.8 mm 0.00 in0.0 mm 0.74 in18.8 mm
10:50 AM 53.6°F12.0°C 53.3°F11.8°C 99% 7.0 mph SW11.3 kmh SW 11.4 mph18.3 kmh 29.73 in1006.8 mb 0.14 in3.6 mm 0.12 in3.0 mm 0.74 in18.8 mm
10:45 AM 53.4°F11.9°C 53.2°F11.8°C 99% 7.3 mph SW11.7 kmh SW 9.2 mph14.8 kmh 29.73 in1006.8 mb 0.13 in3.3 mm 0.12 in3.0 mm 0.73 in18.5 mm
10:40 AM 53.4°F11.9°C 53.2°F11.8°C 99% 6.9 mph SW11.1 kmh SW 9.8 mph15.8 kmh 29.74 in1007.1 mb 0.12 in3.0 mm 0.00 in0.0 mm 0.72 in18.3 mm
10:35 AM 53.4°F11.9°C 53.2°F11.8°C 99% 6.6 mph SW10.6 kmh SW 9.8 mph15.8 kmh 29.74 in1007.1 mb 0.12 in3.0 mm 0.12 in3.0 mm 0.72 in18.3 mm
10:30 AM 53.4°F11.9°C 53.2°F11.8°C 99% 7.3 mph SW11.7 kmh SW 8.3 mph13.4 kmh 29.74 in1007.1 mb 0.11 in2.8 mm 0.36 in9.1 mm 0.70 in17.8 mm
10:25 AM 53.2°F11.8°C 53.0°F11.7°C 99% 8.0 mph SW12.9 kmh SW 9.2 mph14.8 kmh 29.74 in1007.1 mb 0.08 in2.0 mm 0.00 in0.0 mm 0.67 in17.0 mm
10:20 AM 53.2°F11.8°C 53.0°F11.7°C 99% 7.1 mph SW11.4 kmh SW 9.2 mph14.8 kmh 29.75 in1007.5 mb 0.08 in2.0 mm 0.00 in0.0 mm 0.67 in17.0 mm
10:15 AM 53.2°F11.8°C 53.0°F11.7°C 99% 6.6 mph SW10.6 kmh SW 9.2 mph14.8 kmh 29.75 in1007.5 mb 0.08 in2.0 mm 0.00 in0.0 mm 0.66 in16.8 mm
10:10 AM 53.1°F11.7°C 52.8°F11.6°C 99% 5.4 mph SW8.7 kmh SW 9.2 mph14.8 kmh 29.75 in1007.5 mb 0.08 in2.0 mm 0.00 in0.0 mm 0.66 in16.8 mm
10:05 AM 52.9°F11.6°C 52.6°F11.4°C 99% 4.7 mph SW7.6 kmh SW 6.9 mph11.1 kmh 29.76 in1007.8 mb 0.08 in2.0 mm 0.00 in0.0 mm 0.65 in16.5 mm
10:00 AM 52.9°F11.6°C 52.6°F11.4°C 99% 5.1 mph WSW8.2 kmh WSW 6.9 mph11.1 kmh 29.76 in1007.8 mb 0.08 in2.0 mm 0.00 in0.0 mm 0.65 in16.5 mm
09:55 AM 53.1°F11.7°C 52.8°F11.6°C 10% 4.5 mph W7.2 kmh W 4.5 mph7.2 kmh 29.77 in1008.1 mb 0.09 in2.3 mm 0.36 in9.1 mm 0.64 in16.3 mm
09:50 AM 53.1°F11.7°C 52.8°F11.6°C 99% 4.2 mph WSW6.8 kmh WSW 4.5 mph7.2 kmh 29.77 in1008.1 mb 0.06 in1.5 mm 0.00 in0.0 mm 0.60 in15.2 mm
09:45 AM 53.1°F11.7°C 52.8°F11.6°C 99% 4.2 mph WSW6.8 kmh WSW 4.5 mph7.2 kmh 29.78 in1008.5 mb 0.06 in1.5 mm 0.00 in0.0 mm 0.60 in15.2 mm
09:40 AM 53.1°F11.7°C 52.8°F11.6°C 99% 4.0 mph WSW6.4 kmh WSW 4.5 mph7.2 kmh 29.78 in1008.5 mb 0.06 in1.5 mm 0.00 in0.0 mm 0.60 in15.2 mm
09:35 AM 53.1°F11.7°C 52.8°F11.6°C 99% 3.5 mph SW5.6 kmh SW 4.5 mph7.2 kmh 29.78 in1008.5 mb 0.06 in1.5 mm 0.00 in0.0 mm 0.60 in15.2 mm
09:30 AM 53.2°F11.8°C 53.0°F11.7°C 99% 3.2 mph SW5.1 kmh SW 5.4 mph8.7 kmh 29.79 in1008.8 mb 0.06 in1.5 mm 0.00 in0.0 mm 0.59 in15.0 mm
09:25 AM 53.2°F11.8°C 53.0°F11.7°C 99% 3.5 mph WSW5.6 kmh WSW 5.4 mph8.7 kmh 29.79 in1008.8 mb 0.06 in1.5 mm 0.00 in0.0 mm 0.59 in15.0 mm
09:20 AM 53.4°F11.9°C 53.2°F11.8°C 99% 5.1 mph SW8.2 kmh SW 6.9 mph11.1 kmh 29.80 in1009.1 mb 0.06 in1.5 mm 0.00 in0.0 mm 0.59 in15.0 mm
09:15 AM 53.6°F12.0°C 53.3°F11.8°C 99% 5.9 mph SW9.5 kmh SW 6.9 mph11.1 kmh 29.80 in1009.1 mb 0.06 in1.5 mm 0.00 in0.0 mm 0.58 in14.7 mm
09:10 AM 53.8°F12.1°C 53.5°F11.9°C 99% 5.6 mph SW9.0 kmh SW 6.9 mph11.1 kmh 29.81 in1009.5 mb 0.07 in1.8 mm 0.12 in3.0 mm 0.58 in14.7 mm
09:05 AM 54.1°F12.3°C 53.9°F12.2°C 99% 5.2 mph SW8.4 kmh SW 5.4 mph8.7 kmh 29.80 in1009.1 mb 0.06 in1.5 mm 0.00 in0.0 mm 0.57 in14.5 mm
09:00 AM 54.1°F12.3°C 53.9°F12.2°C 99% 4.7 mph SW7.6 kmh SW 5.4 mph8.7 kmh 29.81 in1009.5 mb 0.06 in1.5 mm 0.02 in0.5 mm 0.57 in14.5 mm
08:55 AM 54.0°F12.2°C 53.7°F12.1°C 99% 7.6 mph SW12.2 kmh SW 7.6 mph12.2 kmh 29.81 in1009.5 mb 0.04 in1.0 mm 0.00 in0.0 mm 0.54 in13.7 mm
08:50 AM 54.0°F12.2°C 53.7°F12.1°C 99% 7.6 mph SW12.2 kmh SW 7.6 mph12.2 kmh 29.82 in1009.8 mb 0.05 in1.3 mm 0.00 in0.0 mm 0.54 in13.7 mm
08:45 AM 54.0°F12.2°C 53.7°F12.1°C 99% 7.6 mph SW12.2 kmh SW 7.6 mph12.2 kmh 29.82 in1009.8 mb 0.05 in1.3 mm 0.00 in0.0 mm 0.54 in13.7 mm
08:40 AM 54.0°F12.2°C 53.7°F12.1°C 99% 7.6 mph SW12.2 kmh SW 7.6 mph12.2 kmh 29.82 in1009.8 mb 0.05 in1.3 mm 0.00 in0.0 mm 0.54 in13.7 mm
08:35 AM 54.0°F12.2°C 53.7°F12.1°C 99% 8.2 mph SW13.2 kmh SW 9.8 mph15.8 kmh 29.82 in1009.8 mb 0.05 in1.3 mm 0.00 in0.0 mm 0.54 in13.7 mm
08:30 AM 54.1°F12.3°C 53.9°F12.2°C 99% 9.4 mph SW15.1 kmh SW 9.8 mph15.8 kmh 29.82 in1009.8 mb 0.05 in1.3 mm 0.00 in0.0 mm 0.53 in13.5 mm
08:25 AM 54.1°F12.3°C 53.9°F12.2°C 99% 8.7 mph SW14.0 kmh SW 9.8 mph15.8 kmh 29.84 in1010.5 mb 0.05 in1.3 mm 0.00 in0.0 mm 0.53 in13.5 mm
08:20 AM 54.1°F12.3°C 53.9°F12.2°C 99% 6.4 mph S10.3 kmh S 9.8 mph15.8 kmh 29.83 in1010.2 mb 0.06 in1.5 mm 0.12 in3.0 mm 0.53 in13.5 mm
08:15 AM 54.1°F12.3°C 53.9°F12.2°C 99% 6.0 mph S9.7 kmh S 10.7 mph17.2 kmh 29.84 in1010.5 mb 0.05 in1.3 mm 0.00 in0.0 mm 0.52 in13.2 mm
08:10 AM 54.1°F12.3°C 53.9°F12.2°C 99% 6.5 mph SSW10.5 kmh SSW 10.7 mph17.2 kmh 29.84 in1010.5 mb 0.05 in1.3 mm 0.00 in0.0 mm 0.51 in13.0 mm
08:05 AM 54.1°F12.3°C 53.9°F12.2°C 99% 6.2 mph S10.0 kmh S 7.6 mph12.2 kmh 29.84 in1010.5 mb 0.05 in1.3 mm 0.00 in0.0 mm 0.51 in13.0 mm
08:00 AM 54.1°F12.3°C 53.9°F12.2°C 99% 7.4 mph S11.9 kmh S 12.1 mph19.5 kmh 29.84 in1010.5 mb 0.06 in1.5 mm 0.00 in0.0 mm 0.51 in13.0 mm
07:55 AM 54.1°F12.3°C 53.9°F12.2°C 99% 7.8 mph S12.6 kmh S 12.1 mph19.5 kmh 29.84 in1010.5 mb 0.06 in1.5 mm 0.00 in0.0 mm 0.51 in13.0 mm
07:50 AM 54.1°F12.3°C 53.9°F12.2°C 99% 7.4 mph S11.9 kmh S 11.4 mph18.3 kmh 29.85 in1010.8 mb 0.06 in1.5 mm 0.00 in0.0 mm 0.50 in12.7 mm
07:45 AM 54.1°F12.3°C 53.9°F12.2°C 99% 6.6 mph S10.6 kmh S 11.4 mph18.3 kmh 29.85 in1010.8 mb 0.07 in1.8 mm 0.00 in0.0 mm 0.50 in12.7 mm
07:40 AM 54.1°F12.3°C 53.9°F12.2°C 99% 5.8 mph S9.3 kmh S 8.3 mph13.4 kmh 29.86 in1011.2 mb 0.11 in2.8 mm 0.00 in0.0 mm 0.50 in12.7 mm
07:35 AM 54.0°F12.2°C 53.7°F12.1°C 99% 6.6 mph S10.6 kmh S 8.3 mph13.4 kmh 29.85 in1010.8 mb 0.12 in3.0 mm 0.00 in0.0 mm 0.50 in12.7 mm
07:30 AM 54.0°F12.2°C 53.7°F12.1°C 99% 7.6 mph SE12.2 kmh SE 8.3 mph13.4 kmh 29.86 in1011.2 mb 0.17 in4.3 mm 0.00 in0.0 mm 0.48 in12.2 mm
07:25 AM 54.0°F12.2°C 53.7°F12.1°C 99% 8.6 mph SE13.8 kmh SE 10.7 mph17.2 kmh 29.86 in1011.2 mb 0.18 in4.6 mm 0.12 in3.0 mm 0.48 in12.2 mm
07:20 AM 54.0°F12.2°C 53.7°F12.1°C 99% 7.6 mph SE12.2 kmh SE 10.7 mph17.2 kmh 29.86 in1011.2 mb 0.17 in4.3 mm 0.00 in0.0 mm 0.47 in11.9 mm
07:15 AM 54.0°F12.2°C 53.7°F12.1°C 99% 7.2 mph S11.6 kmh S 10.7 mph17.2 kmh 29.86 in1011.2 mb 0.18 in4.6 mm 0.12 in3.0 mm 0.47 in11.9 mm
07:10 AM 53.8°F12.1°C 53.5°F11.9°C 99% 6.9 mph S11.1 kmh S 10.7 mph17.2 kmh 29.86 in1011.2 mb 0.17 in4.3 mm 0.00 in0.0 mm 0.46 in11.7 mm
07:05 AM 53.8°F12.1°C 53.5°F11.9°C 99% 5.9 mph S9.5 kmh S 9.8 mph15.8 kmh 29.87 in1011.5 mb 0.18 in4.6 mm 0.12 in3.0 mm 0.46 in11.7 mm
07:00 AM 53.6°F12.0°C 53.3°F11.8°C 99% 7.7 mph SSW12.4 kmh SSW 11.4 mph18.3 kmh 29.86 in1011.2 mb 0.17 in4.3 mm 0.00 in0.0 mm 0.45 in11.4 mm
06:55 AM 53.4°F11.9°C 53.2°F11.8°C 99% 9.1 mph S14.6 kmh S 11.4 mph18.3 kmh 29.87 in1011.5 mb 0.17 in4.3 mm 0.24 in6.1 mm 0.45 in11.4 mm
06:50 AM 53.2°F11.8°C 53.0°F11.7°C 99% 8.1 mph S13.0 kmh S 10.7 mph17.2 kmh 29.87 in1011.5 mb 0.15 in3.8 mm 0.00 in0.0 mm 0.45 in11.4 mm
06:45 AM 53.2°F11.8°C 53.0°F11.7°C 99% 6.9 mph SSW11.1 kmh SSW 9.8 mph15.8 kmh 29.88 in1011.9 mb 0.15 in3.8 mm 0.36 in9.1 mm 0.44 in11.2 mm
06:40 AM 53.4°F11.9°C 53.2°F11.8°C 99% 6.6 mph SW10.6 kmh SW 9.2 mph14.8 kmh 29.87 in1011.5 mb 0.12 in3.0 mm 0.12 in3.0 mm 0.40 in10.2 mm
06:35 AM 53.4°F11.9°C 53.2°F11.8°C 99% 5.7 mph SW9.2 kmh SW 8.3 mph13.4 kmh 29.87 in1011.5 mb 0.11 in2.8 mm 0.60 in15.2 mm 0.39 in9.9 mm
06:30 AM 53.4°F11.9°C 53.2°F11.8°C 99% 6.6 mph SW10.6 kmh SW 9.8 mph15.8 kmh 29.88 in1011.9 mb 0.06 in1.5 mm 0.12 in3.0 mm 0.33 in8.4 mm
06:25 AM 53.2°F11.8°C 53.0°F11.7°C 99% 7.8 mph SW12.6 kmh SW 10.7 mph17.2 kmh 29.88 in1011.9 mb 0.05 in1.3 mm 0.00 in0.0 mm 0.32 in8.1 mm
06:20 AM 53.2°F11.8°C 53.0°F11.7°C 99% 6.7 mph SSW10.8 kmh SSW 10.7 mph17.2 kmh 29.88 in1011.9 mb 0.05 in1.3 mm 0.12 in3.0 mm 0.32 in8.1 mm
06:15 AM 53.2°F11.8°C 53.0°F11.7°C 99% 5.8 mph SW9.3 kmh SW 9.2 mph14.8 kmh 29.88 in1011.9 mb 0.04 in1.0 mm 0.00 in0.0 mm 0.31 in7.9 mm
06:10 AM 53.2°F11.8°C 53.0°F11.7°C 99% 6.5 mph SSW10.5 kmh SSW 11.4 mph18.3 kmh 29.89 in1012.2 mb 0.05 in1.3 mm 0.12 in3.0 mm 0.31 in7.9 mm
06:05 AM 53.2°F11.8°C 53.0°F11.7°C 99% 8.2 mph SSW13.2 kmh SSW 11.4 mph18.3 kmh 29.89 in1012.2 mb 0.04 in1.0 mm 0.00 in0.0 mm 0.30 in7.6 mm
06:00 AM 53.2°F11.8°C 53.0°F11.7°C 99% 7.8 mph SSW12.6 kmh SSW 11.4 mph18.3 kmh 29.89 in1012.2 mb 0.04 in1.0 mm 0.00 in0.0 mm 0.30 in7.6 mm
05:55 AM 53.2°F11.8°C 53.0°F11.7°C 99% 7.2 mph SSW11.6 kmh SSW 11.4 mph18.3 kmh 29.89 in1012.2 mb 0.04 in1.0 mm 0.00 in0.0 mm 0.30 in7.6 mm
05:50 AM 53.1°F11.7°C 52.8°F11.6°C 99% 6.8 mph S10.9 kmh S 11.4 mph18.3 kmh 29.89 in1012.2 mb 0.04 in1.0 mm 0.24 in6.1 mm 0.30 in7.6 mm
05:45 AM 53.1°F11.7°C 52.8°F11.6°C 99% 6.2 mph S10.0 kmh S 7.6 mph12.2 kmh 29.89 in1012.2 mb 0.02 in0.5 mm 0.00 in0.0 mm 0.28 in7.1 mm
05:40 AM 53.1°F11.7°C 52.8°F11.6°C 99% 7.5 mph S12.1 kmh S 13.0 mph20.9 kmh 29.90 in1012.5 mb 0.02 in0.5 mm 0.00 in0.0 mm 0.28 in7.1 mm
05:35 AM 53.1°F11.7°C 52.8°F11.6°C 99% 9.5 mph S15.3 kmh S 13.0 mph20.9 kmh 29.90 in1012.5 mb 0.02 in0.5 mm 0.12 in3.0 mm 0.28 in7.1 mm
05:30 AM 53.1°F11.7°C 52.8°F11.6°C 99% 10.0 mph SSE16.1 kmh SSE 10.7 mph17.2 kmh 29.90 in1012.5 mb 0.01 in0.3 mm 0.00 in0.0 mm 0.27 in6.9 mm
05:25 AM 52.9°F11.6°C 52.6°F11.4°C 99% 8.9 mph S14.3 kmh S 10.7 mph17.2 kmh 29.91 in1012.9 mb 0.01 in0.3 mm 0.00 in0.0 mm 0.27 in6.9 mm
05:20 AM 52.9°F11.6°C 52.6°F11.4°C 99% 8.2 mph S13.2 kmh S 10.7 mph17.2 kmh 29.91 in1012.9 mb 0.02 in0.5 mm 0.00 in0.0 mm 0.27 in6.9 mm
05:15 AM 52.5°F11.4°C 52.3°F11.3°C 99% 6.5 mph S10.5 kmh S 10.7 mph17.2 kmh 29.91 in1012.9 mb 0.02 in0.5 mm 0.12 in3.0 mm 0.27 in6.9 mm
05:10 AM 52.3°F11.3°C 52.1°F11.2°C 99% 4.7 mph S7.6 kmh S 8.3 mph13.4 kmh 29.91 in1012.9 mb 0.01 in0.3 mm 0.00 in0.0 mm 0.26 in6.6 mm
05:05 AM 52.0°F11.1°C 51.7°F10.9°C 99% 5.9 mph S9.5 kmh S 12.1 mph19.5 kmh 29.91 in1012.9 mb 0.01 in0.3 mm 0.00 in0.0 mm 0.26 in6.6 mm
05:00 AM 51.3°F10.7°C 51.0°F10.6°C 99% 5.9 mph S9.5 kmh S 12.1 mph19.5 kmh 29.92 in1013.2 mb 0.01 in0.3 mm 0.00 in0.0 mm 0.26 in6.6 mm
04:55 AM 50.7°F10.4°C 50.5°F10.3°C 99% 3.2 mph S5.1 kmh S 7.6 mph12.2 kmh 29.92 in1013.2 mb 0.01 in0.3 mm 0.00 in0.0 mm 0.26 in6.6 mm
04:50 AM 51.4°F10.8°C 51.2°F10.7°C 99% 5.0 mph SSE8.0 kmh SSE 9.8 mph15.8 kmh 29.93 in1013.5 mb 0.02 in0.5 mm 0.00 in0.0 mm 0.26 in6.6 mm
04:45 AM 52.0°F11.1°C 51.7°F10.9°C 99% 7.4 mph S11.9 kmh S 11.4 mph18.3 kmh 29.93 in1013.5 mb 0.02 in0.5 mm 0.00 in0.0 mm 0.26 in6.6 mm
04:40 AM 51.6°F10.9°C 51.4°F10.8°C 99% 7.3 mph S11.7 kmh S 11.4 mph18.3 kmh 29.93 in1013.5 mb 0.02 in0.5 mm 0.00 in0.0 mm 0.26 in6.6 mm
04:35 AM 51.1°F10.6°C 50.8°F10.4°C 99% 8.2 mph S13.2 kmh S 11.4 mph18.3 kmh 29.92 in1013.2 mb 0.02 in0.5 mm 0.00 in0.0 mm 0.26 in6.6 mm
04:30 AM 50.2°F10.1°C 49.9°F9.9°C 99% 8.8 mph SSW14.2 kmh SSW 11.4 mph18.3 kmh 29.92 in1013.2 mb 0.02 in0.5 mm 0.00 in0.0 mm 0.26 in6.6 mm
04:25 AM 49.1°F9.5°C 48.8°F9.3°C 99% 6.7 mph SW10.8 kmh SW 11.4 mph18.3 kmh 29.93 in1013.5 mb 0.02 in0.5 mm 0.12 in3.0 mm 0.26 in6.6 mm
04:20 AM 47.1°F8.4°C 46.9°F8.3°C 99% 3.7 mph W6.0 kmh W 9.2 mph14.8 kmh 29.93 in1013.5 mb 0.01 in0.3 mm 0.00 in0.0 mm 0.25 in6.4 mm
04:15 AM 46.9°F8.3°C 46.7°F8.2°C 99% 3.3 mph NW5.3 kmh NW 5.4 mph8.7 kmh 29.94 in1013.9 mb 0.01 in0.3 mm 0.00 in0.0 mm 0.25 in6.4 mm
04:10 AM 46.8°F8.2°C 46.5°F8.1°C 99% 4.7 mph NW7.6 kmh NW 8.3 mph13.4 kmh 29.94 in1013.9 mb 0.01 in0.3 mm 0.00 in0.0 mm 0.25 in6.4 mm
04:05 AM 46.8°F8.2°C 46.5°F8.1°C 99% 5.1 mph WNW8.2 kmh WNW 8.3 mph13.4 kmh 29.94 in1013.9 mb 0.01 in0.3 mm 0.00 in0.0 mm 0.25 in6.4 mm
04:00 AM 46.9°F8.3°C 46.7°F8.2°C 99% 3.5 mph WNW5.6 kmh WNW 6.9 mph11.1 kmh 29.95 in1014.2 mb 0.01 in0.3 mm 0.00 in0.0 mm 0.25 in6.4 mm
03:55 AM 46.9°F8.3°C 46.7°F8.2°C 99% 4.2 mph N6.8 kmh N 8.3 mph13.4 kmh 29.95 in1014.2 mb 0.01 in0.3 mm 0.12 in3.0 mm 0.25 in6.4 mm
03:50 AM 46.9°F8.3°C 46.7°F8.2°C 99% 5.1 mph N8.2 kmh N 8.3 mph13.4 kmh 29.95 in1014.2 mb 0.00 in0.0 mm 0.00 in0.0 mm 0.24 in6.1 mm
03:45 AM 46.8°F8.2°C 46.5°F8.1°C 99% 4.3 mph N6.9 kmh N 6.9 mph11.1 kmh 29.96 in1014.6 mb 0.00 in0.0 mm 0.00 in0.0 mm 0.24 in6.1 mm
03:40 AM 46.6°F8.1°C 46.3°F7.9°C 99% 4.4 mph N7.1 kmh N 7.6 mph12.2 kmh 29.96 in1014.6 mb 0.01 in0.3 mm 0.00 in0.0 mm 0.24 in6.1 mm
03:35 AM 46.6°F8.1°C 46.3°F7.9°C 99% 6.0 mph N9.7 kmh N 9.2 mph14.8 kmh 29.97 in1014.9 mb 0.01 in0.3 mm 0.00 in0.0 mm 0.24 in6.1 mm
03:30 AM 46.4°F8.0°C 46.1°F7.8°C 99% 6.5 mph N10.5 kmh N 9.2 mph14.8 kmh 29.96 in1014.6 mb 0.01 in0.3 mm 0.00 in0.0 mm 0.24 in6.1 mm
03:25 AM 46.6°F8.1°C 46.3°F7.9°C 99% 4.1 mph NNE6.6 kmh NNE 9.2 mph14.8 kmh 29.96 in1014.6 mb 0.02 in0.5 mm 0.00 in0.0 mm 0.24 in6.1 mm
03:20 AM 46.8°F8.2°C 46.5°F8.1°C 99% 3.3 mph SE5.3 kmh SE 7.6 mph12.2 kmh 29.97 in1014.9 mb 0.02 in0.5 mm 0.00 in0.0 mm 0.24 in6.1 mm
03:15 AM 46.6°F8.1°C 46.3°F7.9°C 99% 4.0 mph WNW6.4 kmh WNW 7.6 mph12.2 kmh 29.97 in1014.9 mb 0.05 in1.3 mm 0.00 in0.0 mm 0.24 in6.1 mm
03:10 AM 46.6°F8.1°C 46.3°F7.9°C 99% 3.6 mph NW5.8 kmh NW 6.0 mph9.7 kmh 29.97 in1014.9 mb 0.07 in1.8 mm 0.00 in0.0 mm 0.24 in6.1 mm
03:05 AM 46.8°F8.2°C 46.5°F8.1°C 99% 2.5 mph NW4.0 kmh NW 3.8 mph6.1 kmh 29.98 in1015.2 mb 0.09 in2.3 mm 0.00 in0.0 mm 0.24 in6.1 mm
03:00 AM 46.6°F8.1°C 46.3°F7.9°C 99% 2.1 mph NW3.4 kmh NW 3.8 mph6.1 kmh 29.98 in1015.2 mb 0.12 in3.0 mm 0.00 in0.0 mm 0.24 in6.1 mm
02:55 AM 46.4°F8.0°C 46.1°F7.8°C 99% 2.4 mph NW3.9 kmh NW 3.8 mph6.1 kmh 29.98 in1015.2 mb 0.14 in3.6 mm 0.00 in0.0 mm 0.24 in6.1 mm
02:50 AM 46.2°F7.9°C 46.0°F7.8°C 99% 2.7 mph NW4.3 kmh NW 3.8 mph6.1 kmh 29.98 in1015.2 mb 0.14 in3.6 mm 0.00 in0.0 mm 0.24 in6.1 mm
02:45 AM 46.0°F7.8°C 45.8°F7.7°C 99% 2.5 mph NW4.0 kmh NW 3.8 mph6.1 kmh 29.97 in1014.9 mb 0.15 in3.8 mm 0.00 in0.0 mm 0.24 in6.1 mm
02:40 AM 45.9°F7.7°C 45.6°F7.6°C 99% 2.7 mph NW4.3 kmh NW 3.8 mph6.1 kmh 29.98 in1015.2 mb 0.15 in3.8 mm 0.00 in0.0 mm 0.22 in5.6 mm
02:35 AM 45.9°F7.7°C 45.6°F7.6°C 99% 3.6 mph NW5.8 kmh NW 4.5 mph7.2 kmh 29.98 in1015.2 mb 0.17 in4.3 mm 0.00 in0.0 mm 0.22 in5.6 mm
02:30 AM 45.7°F7.6°C 45.4°F7.4°C 99% 4.4 mph NW7.1 kmh NW 5.4 mph8.7 kmh 29.99 in1015.6 mb 0.18 in4.6 mm 0.12 in3.0 mm 0.22 in5.6 mm
02:25 AM 45.7°F7.6°C 45.4°F7.4°C 99% 4.9 mph NW7.9 kmh NW 6.9 mph11.1 kmh 30.00 in1015.9 mb 0.17 in4.3 mm 0.00 in0.0 mm 0.21 in5.3 mm
02:20 AM 45.7°F7.6°C 45.4°F7.4°C 99% 5.0 mph NW8.0 kmh NW 8.3 mph13.4 kmh 30.01 in1016.3 mb 0.17 in4.3 mm 0.24 in6.1 mm 0.20 in5.1 mm
02:15 AM 45.7°F7.6°C 45.4°F7.4°C 99% 4.4 mph NW7.1 kmh NW 8.3 mph13.4 kmh 30.02 in1016.6 mb 0.15 in3.8 mm 0.24 in6.1 mm 0.19 in4.8 mm
02:10 AM 45.7°F7.6°C 45.4°F7.4°C 99% 4.1 mph NW6.6 kmh NW 6.0 mph9.7 kmh 30.02 in1016.6 mb 0.13 in3.3 mm 0.12 in3.0 mm 0.17 in4.3 mm
02:05 AM 45.7°F7.6°C 45.4°F7.4°C 99% 4.1 mph NW6.6 kmh NW 6.0 mph9.7 kmh 30.02 in1016.6 mb 0.12 in3.0 mm 0.36 in9.1 mm 0.14 in3.6 mm
02:00 AM 45.7°F7.6°C 45.4°F7.4°C 99% 3.9 mph NW6.3 kmh NW 5.4 mph8.7 kmh 30.02 in1016.6 mb 0.09 in2.3 mm 0.02 in0.5 mm 0.12 in3.0 mm
01:55 AM 45.7°F7.6°C 45.4°F7.4°C 99% 3.8 mph NW6.1 kmh NW 5.4 mph8.7 kmh 30.03 in1016.9 mb 0.07 in1.8 mm 0.00 in0.0 mm 0.09 in2.3 mm
01:50 AM 45.7°F7.6°C 45.4°F7.4°C 99% 4.3 mph NW6.9 kmh NW 6.0 mph9.7 kmh 30.02 in1016.6 mb 0.07 in1.8 mm 0.12 in3.0 mm 0.09 in2.3 mm
01:45 AM 45.7°F7.6°C 45.4°F7.4°C 99% 4.6 mph W7.4 kmh W 6.0 mph9.7 kmh 30.01 in1016.3 mb 0.06 in1.5 mm 0.12 in3.0 mm 0.08 in2.0 mm
01:40 AM 45.7°F7.6°C 45.4°F7.4°C 99% 4.6 mph W7.4 kmh W 6.0 mph9.7 kmh 30.02 in1016.6 mb 0.05 in1.3 mm 0.12 in3.0 mm 0.07 in1.8 mm
01:35 AM 45.9°F7.7°C 45.6°F7.6°C 99% 4.3 mph W6.9 kmh W 6.9 mph11.1 kmh 30.02 in1016.6 mb 0.04 in1.0 mm 0.00 in0.0 mm 0.06 in1.5 mm
01:30 AM 46.0°F7.8°C 45.8°F7.7°C 99% 3.7 mph W6.0 kmh W 6.9 mph11.1 kmh 30.03 in1016.9 mb 0.04 in1.0 mm 0.00 in0.0 mm 0.05 in1.3 mm
01:25 AM 46.0°F7.8°C 45.8°F7.7°C 99% 3.5 mph W5.6 kmh W 5.4 mph8.7 kmh 30.03 in1016.9 mb 0.04 in1.0 mm 0.00 in0.0 mm 0.05 in1.3 mm
01:20 AM 46.0°F7.8°C 45.8°F7.7°C 99% 4.3 mph W6.9 kmh W 6.0 mph9.7 kmh 30.03 in1016.9 mb 0.04 in1.0 mm 0.00 in0.0 mm 0.04 in1.0 mm
01:15 AM 46.0°F7.8°C 45.8°F7.7°C 99% 4.4 mph W7.1 kmh W 6.0 mph9.7 kmh 30.03 in1016.9 mb 0.04 in1.0 mm 0.00 in0.0 mm 0.04 in1.0 mm
01:10 AM 46.0°F7.8°C 45.8°F7.7°C 99% 3.1 mph W5.0 kmh W 6.0 mph9.7 kmh 30.03 in1016.9 mb 0.04 in1.0 mm 0.24 in6.1 mm 0.04 in1.0 mm
01:05 AM 46.0°F7.8°C 45.8°F7.7°C 99% 2.2 mph W3.5 kmh W 3.8 mph6.1 kmh 30.03 in1016.9 mb 0.02 in0.5 mm 0.00 in0.0 mm 0.02 in0.5 mm
01:00 AM 46.0°F7.8°C 45.8°F7.7°C 99% 3.7 mph W6.0 kmh W 6.9 mph11.1 kmh 30.03 in1016.9 mb 0.02 in0.5 mm 0.00 in0.0 mm 0.02 in0.5 mm
12:55 AM 46.0°F7.8°C 45.8°F7.7°C 99% 4.8 mph W7.7 kmh W 6.9 mph11.1 kmh 30.03 in1016.9 mb 0.02 in0.5 mm 0.00 in0.0 mm 0.02 in0.5 mm
12:50 AM 46.2°F7.9°C 46.0°F7.8°C 99% 3.8 mph W6.1 kmh W 6.0 mph9.7 kmh 30.03 in1016.9 mb 0.02 in0.5 mm 0.00 in0.0 mm 0.02 in0.5 mm
12:45 AM 46.0°F7.8°C 45.8°F7.7°C 99% 3.8 mph WNW6.1 kmh WNW 7.6 mph12.2 kmh 30.03 in1016.9 mb 0.02 in0.5 mm 0.00 in0.0 mm 0.02 in0.5 mm
12:40 AM 46.0°F7.8°C 45.8°F7.7°C 99% 3.7 mph NW6.0 kmh NW 7.6 mph12.2 kmh 30.02 in1016.6 mb 0.02 in0.5 mm 0.00 in0.0 mm 0.02 in0.5 mm
12:35 AM 46.0°F7.8°C 45.8°F7.7°C 99% 2.6 mph NW4.2 kmh NW 3.8 mph6.1 kmh 30.04 in1017.3 mb 0.02 in0.5 mm 0.00 in0.0 mm 0.02 in0.5 mm
12:30 AM 46.0°F7.8°C 45.8°F7.7°C 99% 2.5 mph NW4.0 kmh NW 3.8 mph6.1 kmh 30.03 in1016.9 mb 0.02 in0.5 mm 0.00 in0.0 mm 0.01 in0.3 mm
12:25 AM 45.9°F7.7°C 45.6°F7.6°C 99% 2.5 mph NW4.0 kmh NW 3.8 mph6.1 kmh 30.03 in1016.9 mb 0.02 in0.5 mm 0.12 in3.0 mm 0.01 in0.3 mm
12:20 AM 45.9°F7.7°C 45.6°F7.6°C 99% 1.8 mph NW2.9 kmh NW 3.1 mph5.0 kmh 30.03 in1016.9 mb 0.01 in0.3 mm 0.00 in0.0 mm 0.02 in0.5 mm
12:15 AM 45.7°F7.6°C 45.4°F7.4°C 99% 1.2 mph NW1.9 kmh NW 2.2 mph3.5 kmh 30.04 in1017.3 mb 0.01 in0.3 mm 0.00 in0.0 mm 0.02 in0.5 mm
12:10 AM 45.7°F7.6°C 45.4°F7.4°C 99% 1.5 mph NW2.4 kmh NW 2.2 mph3.5 kmh 30.04 in1017.3 mb 0.02 in0.5 mm 0.00 in0.0 mm 0.02 in0.5 mm
12:05 AM 45.9°F7.7°C 45.6°F7.6°C 99% 2.5 mph NW4.0 kmh NW 3.8 mph6.1 kmh 30.04 in1017.3 mb 0.02 in0.5 mm 0.00 in0.0 mm 0.02 in0.5 mm
12:00 AM 45.9°F7.7°C 45.6°F7.6°C 99% 3.1 mph NW5.0 kmh NW 4.5 mph7.2 kmh 30.04 in1017.3 mb 0.02 in0.5 mm 0.00 in0.0 mm 0.02 in0.5 mm